createdAt,value
2022-10-08T12:47:45.519Z,59.34
2022-10-08T12:50:25.651Z,59.59
2022-10-08T12:52:53.559Z,59.14
2022-10-08T12:55:22.464Z,59.63
2022-10-08T12:57:50.904Z,59.64
2022-10-08T13:00:22.289Z,59.44
2022-10-08T13:03:01.557Z,59.60
2022-10-08T13:05:30.893Z,59.72
2022-10-08T13:07:58.854Z,59.94
2022-10-08T13:10:28.280Z,59.93
2022-10-08T13:13:06.416Z,59.69
2022-10-08T13:15:35.145Z,59.87
2022-10-08T13:18:15.242Z,59.97
2022-10-08T13:20:56.733Z,59.69
2022-10-08T13:23:32.574Z,59.85
2022-10-08T13:26:01.164Z,60.04
2022-10-08T13:28:58.610Z,60.17
2022-10-08T13:31:23.011Z,59.92
2022-10-08T13:33:52.286Z,59.59
2022-10-08T13:36:21.754Z,59.86
2022-10-08T13:38:49.701Z,59.50
2022-10-08T13:41:23.557Z,59.57
2022-10-08T13:43:51.692Z,59.64
2022-10-08T13:46:19.654Z,59.42
2022-10-08T13:48:47.638Z,59.09
2022-10-08T13:51:16.928Z,58.93
2022-10-08T13:53:45.798Z,58.27
2022-10-08T13:56:13.839Z,57.66
2022-10-08T13:58:41.725Z,57.12
2022-10-08T14:01:09.693Z,56.78
2022-10-08T14:03:37.711Z,56.48
2022-10-08T14:06:05.777Z,56.19
2022-10-08T14:08:36.082Z,56.54
2022-10-08T14:11:04.088Z,56.62
2022-10-08T14:13:31.951Z,57.61
2022-10-08T14:15:59.843Z,58.37
2022-10-08T14:18:27.849Z,58.90
2022-10-08T14:20:55.743Z,59.32
2022-10-08T14:23:23.627Z,58.90
2022-10-08T14:25:53.977Z,58.93
2022-10-08T14:28:21.894Z,58.38
2022-10-08T14:30:49.853Z,57.78
2022-10-08T14:33:17.770Z,57.66
2022-10-08T14:35:45.664Z,57.43
2022-10-08T14:38:13.566Z,57.49
2022-10-08T14:40:41.456Z,57.49
2022-10-08T14:43:10.727Z,57.56
2022-10-08T14:45:38.804Z,58.08
2022-10-08T14:48:07.191Z,58.15
2022-10-08T14:50:35.092Z,58.48
2022-10-08T14:53:02.983Z,58.24
2022-10-08T14:55:30.900Z,58.64
2022-10-08T14:57:58.793Z,58.67
2022-10-08T15:00:28.047Z,58.72
2022-10-08T15:02:55.999Z,59.01
2022-10-08T15:05:23.856Z,58.87
2022-10-08T15:07:51.951Z,58.56
2022-10-08T15:10:19.902Z,57.96
2022-10-08T15:12:48.038Z,57.58
2022-10-08T15:15:18.569Z,57.16
2022-10-08T15:17:47.951Z,56.95
2022-10-08T15:20:16.312Z,56.89
2022-10-08T15:22:44.205Z,57.26
2022-10-08T15:25:12.085Z,57.30
2022-10-08T15:27:39.977Z,57.53
2022-10-08T15:30:08.987Z,57.43
2022-10-08T15:32:39.183Z,57.84
2022-10-08T15:35:09.109Z,58.31
2022-10-08T15:37:37.043Z,58.22
2022-10-08T15:40:05.500Z,57.68
2022-10-08T15:42:33.386Z,57.91
2022-10-08T15:45:01.287Z,58.26
2022-10-08T15:47:29.182Z,57.94
2022-10-08T15:49:57.055Z,57.95
2022-10-08T15:52:26.568Z,58.46
2022-10-08T15:54:54.469Z,58.63
2022-10-08T15:57:22.532Z,58.50
2022-10-08T15:59:50.436Z,59.18
2022-10-08T16:02:18.799Z,59.00
2022-10-08T16:04:47.521Z,58.86
2022-10-08T16:07:15.585Z,58.60
2022-10-08T16:09:44.829Z,59.42
2022-10-08T16:12:12.739Z,59.62
2022-10-08T16:14:40.661Z,59.50
2022-10-08T16:17:09.097Z,59.72
2022-10-08T16:19:37.044Z,59.93
2022-10-08T16:22:05.459Z,60.23
2022-10-08T16:24:33.347Z,60.47
2022-10-08T16:27:02.618Z,60.51
2022-10-08T16:29:30.678Z,60.56
2022-10-08T16:31:58.655Z,60.41
2022-10-08T16:34:27.122Z,60.41
2022-10-08T16:36:54.999Z,60.56
2022-10-08T16:39:24.373Z,60.81
2022-10-08T16:41:52.356Z,60.82
2022-10-08T16:44:21.765Z,61.03
2022-10-08T16:46:51.042Z,61.02
2022-10-08T16:49:24.189Z,61.36
2022-10-08T16:51:53.277Z,61.36
2022-10-08T16:54:21.178Z,61.06
2022-10-08T16:56:49.516Z,61.22
2022-10-08T16:59:19.089Z,61.31
2022-10-08T17:01:49.684Z,61.51
2022-10-08T17:04:17.965Z,61.87
2022-10-08T17:06:45.916Z,61.35
2022-10-08T17:09:14.008Z,61.44
2022-10-08T17:11:42.291Z,61.65
2022-10-08T17:14:11.636Z,61.51
2022-10-08T17:16:39.647Z,61.61
2022-10-08T17:19:09.036Z,62.03
2022-10-08T17:21:37.092Z,62.07
2022-10-08T17:24:05.201Z,61.98
2022-10-08T17:26:33.122Z,61.68
2022-10-08T17:29:03.521Z,62.22
2022-10-08T17:31:31.784Z,62.04
2022-10-08T17:34:00.089Z,62.05
2022-10-08T17:36:30.029Z,61.92
2022-10-08T17:38:58.999Z,62.22
2022-10-08T17:41:27.545Z,62.30
2022-10-08T17:43:56.763Z,62.06
2022-10-08T17:46:25.543Z,62.35
2022-10-08T17:48:53.661Z,61.86
2022-10-08T17:51:22.215Z,62.00
2022-10-08T17:53:54.227Z,62.11
2022-10-08T17:56:22.168Z,62.02
2022-10-08T17:58:50.069Z,62.22
2022-10-08T18:01:18.851Z,62.31
2022-10-08T18:03:51.051Z,62.65
2022-10-08T18:06:19.414Z,62.63
2022-10-08T18:08:47.329Z,62.65
2022-10-08T18:11:17.906Z,62.74
2022-10-08T18:13:45.876Z,62.78
2022-10-08T18:16:15.246Z,62.57
2022-10-08T18:18:43.403Z,62.62
2022-10-08T18:21:11.644Z,62.81
2022-10-08T18:23:41.887Z,62.89
2022-10-08T18:26:11.055Z,62.65
2022-10-08T18:28:40.354Z,62.68
2022-10-08T18:31:08.947Z,62.92
2022-10-08T18:33:37.804Z,62.50
2022-10-08T18:36:10.288Z,62.75
2022-10-08T18:38:38.262Z,62.79
2022-10-08T18:41:16.009Z,62.60
2022-10-08T18:43:45.416Z,62.69
2022-10-08T18:46:13.493Z,62.61
2022-10-08T18:48:41.570Z,63.06
2022-10-08T18:51:10.291Z,62.90
2022-10-08T18:53:39.000Z,62.61
2022-10-08T18:56:08.484Z,63.21
2022-10-08T18:58:37.518Z,62.77
2022-10-08T19:01:07.123Z,62.90
2022-10-08T19:03:35.103Z,62.94
2022-10-08T19:10:58.847Z,63.13
2022-10-08T19:13:26.721Z,63.23
2022-10-08T19:15:54.697Z,63.31
2022-10-08T19:18:24.011Z,62.92
2022-10-08T19:20:51.891Z,63.03
2022-10-08T19:23:19.771Z,63.26
2022-10-08T19:25:47.656Z,63.01
2022-10-08T19:28:15.635Z,63.01
2022-10-08T19:30:43.603Z,63.14
2022-10-08T19:33:11.549Z,63.09
2022-10-08T19:35:41.827Z,63.21
2022-10-08T19:38:09.732Z,63.49
2022-10-08T19:40:37.610Z,63.59
2022-10-08T19:43:05.519Z,63.50
2022-10-08T19:45:35.367Z,63.15
2022-10-08T19:48:03.278Z,63.31
2022-10-08T19:50:31.160Z,63.23
2022-10-08T19:53:00.517Z,63.74
2022-10-08T19:55:28.581Z,63.60
2022-10-08T19:57:56.466Z,63.26
2022-10-08T20:00:24.374Z,63.39
2022-10-08T20:02:52.457Z,63.86
2022-10-08T20:05:20.477Z,63.39
2022-10-08T20:07:48.386Z,63.65
2022-10-08T20:10:17.837Z,63.56
2022-10-08T20:12:45.987Z,63.63
2022-10-08T20:15:14.224Z,63.71
2022-10-08T20:17:42.131Z,63.40
2022-10-08T20:20:31.899Z,63.91
2022-10-08T20:22:58.760Z,63.35
2022-10-08T20:25:28.042Z,63.48
2022-10-08T20:27:55.972Z,63.44
2022-10-08T20:30:23.926Z,63.98
2022-10-08T20:32:51.840Z,63.54
2022-10-08T20:35:19.783Z,63.91
2022-10-08T20:37:47.657Z,63.54
